sensor_id;sensor_type;location;lat;lon;timestamp;pressure;altitude;pressure_sealevel;temperature;humidity
69772;BME280;57046;45.988;18.664;2022-07-09T00:02:12;101155.16;;;18.63;64.38
69772;BME280;57046;45.988;18.664;2022-07-09T00:04:37;101146.38;;;18.58;64.75
69772;BME280;57046;45.988;18.664;2022-07-09T00:07:03;101143.75;;;18.46;65.03
69772;BME280;57046;45.988;18.664;2022-07-09T00:09:28;101149.06;;;18.39;64.82
69772;BME280;57046;45.988;18.664;2022-07-09T00:11:54;101151.38;;;18.37;65.18
69772;BME280;57046;45.988;18.664;2022-07-09T00:14:19;101146.53;;;18.30;65.19
69772;BME280;57046;45.988;18.664;2022-07-09T00:16:44;101154.19;;;18.24;65.25
69772;BME280;57046;45.988;18.664;2022-07-09T00:19:10;101146.16;;;18.16;65.35
69772;BME280;57046;45.988;18.664;2022-07-09T00:21:35;101156.31;;;18.15;65.54
69772;BME280;57046;45.988;18.664;2022-07-09T00:24:01;101147.50;;;18.06;65.91
69772;BME280;57046;45.988;18.664;2022-07-09T00:26:26;101157.38;;;18.11;65.72
69772;BME280;57046;45.988;18.664;2022-07-09T00:28:51;101156.13;;;18.08;65.76
69772;BME280;57046;45.988;18.664;2022-07-09T00:31:17;101159.31;;;18.10;65.95
69772;BME280;57046;45.988;18.664;2022-07-09T00:33:42;101157.66;;;18.06;65.54
69772;BME280;57046;45.988;18.664;2022-07-09T00:36:07;101174.94;;;18.10;65.53
69772;BME280;57046;45.988;18.664;2022-07-09T00:38:33;101167.00;;;18.05;65.38
69772;BME280;57046;45.988;18.664;2022-07-09T00:40:58;101156.66;;;17.98;65.56
69772;BME280;57046;45.988;18.664;2022-07-09T00:43:23;101159.84;;;18.00;65.38
69772;BME280;57046;45.988;18.664;2022-07-09T00:45:49;101158.34;;;18.03;65.32
69772;BME280;57046;45.988;18.664;2022-07-09T00:48:14;101162.75;;;18.07;64.80
69772;BME280;57046;45.988;18.664;2022-07-09T00:50:42;101167.09;;;18.08;64.67
69772;BME280;57046;45.988;18.664;2022-07-09T00:53:13;101163.13;;;18.06;65.20
69772;BME280;57046;45.988;18.664;2022-07-09T00:55:39;101162.69;;;18.19;64.33
69772;BME280;57046;45.988;18.664;2022-07-09T00:58:04;101164.06;;;18.13;64.39
69772;BME280;57046;45.988;18.664;2022-07-09T01:00:30;101155.44;;;18.11;63.96
69772;BME280;57046;45.988;18.664;2022-07-09T01:02:56;101167.25;;;18.15;64.10
69772;BME280;57046;45.988;18.664;2022-07-09T01:05:21;101163.63;;;18.11;63.87
69772;BME280;57046;45.988;18.664;2022-07-09T01:07:47;101161.31;;;18.13;63.87
69772;BME280;57046;45.988;18.664;2022-07-09T01:10:12;101160.09;;;18.11;63.90
69772;BME280;57046;45.988;18.664;2022-07-09T01:12:38;101157.72;;;18.09;63.87
69772;BME280;57046;45.988;18.664;2022-07-09T01:15:04;101164.44;;;18.12;63.80
69772;BME280;57046;45.988;18.664;2022-07-09T01:17:39;101164.78;;;18.10;63.97
69772;BME280;57046;45.988;18.664;2022-07-09T01:20:05;101164.25;;;18.05;63.86
69772;BME280;57046;45.988;18.664;2022-07-09T01:22:31;101152.44;;;18.01;64.08
69772;BME280;57046;45.988;18.664;2022-07-09T01:24:57;101154.28;;;17.97;64.04
69772;BME280;57046;45.988;18.664;2022-07-09T01:27:24;101161.00;;;17.99;64.23
69772;BME280;57046;45.988;18.664;2022-07-09T01:29:49;101155.78;;;17.94;64.19
69772;BME280;57046;45.988;18.664;2022-07-09T01:32:16;101158.31;;;17.87;64.65
69772;BME280;57046;45.988;18.664;2022-07-09T01:34:41;101147.66;;;17.82;64.50
69772;BME280;57046;45.988;18.664;2022-07-09T01:37:07;101162.56;;;17.85;64.65
69772;BME280;57046;45.988;18.664;2022-07-09T01:39:32;101154.78;;;17.87;64.60
69772;BME280;57046;45.988;18.664;2022-07-09T01:41:57;101146.78;;;17.78;64.71
69772;BME280;57046;45.988;18.664;2022-07-09T01:44:23;101150.63;;;17.77;64.62
69772;BME280;57046;45.988;18.664;2022-07-09T01:46:48;101145.09;;;17.73;64.94
69772;BME280;57046;45.988;18.664;2022-07-09T01:49:13;101142.00;;;17.75;64.50
69772;BME280;57046;45.988;18.664;2022-07-09T01:51:39;101136.34;;;17.68;64.69
69772;BME280;57046;45.988;18.664;2022-07-09T01:54:04;101141.25;;;17.62;65.01
69772;BME280;57046;45.988;18.664;2022-07-09T01:56:30;101138.91;;;17.61;65.01
69772;BME280;57046;45.988;18.664;2022-07-09T01:58:56;101124.13;;;17.50;65.30
69772;BME280;57046;45.988;18.664;2022-07-09T02:01:21;101133.38;;;17.45;65.57
69772;BME280;57046;45.988;18.664;2022-07-09T02:03:46;101136.44;;;17.44;65.55
69772;BME280;57046;45.988;18.664;2022-07-09T02:06:12;101143.75;;;17.40;65.56
69772;BME280;57046;45.988;18.664;2022-07-09T02:08:37;101139.25;;;17.32;65.99
69772;BME280;57046;45.988;18.664;2022-07-09T02:11:03;101141.31;;;17.22;66.28
69772;BME280;57046;45.988;18.664;2022-07-09T02:13:28;101133.72;;;17.16;66.42
69772;BME280;57046;45.988;18.664;2022-07-09T02:15:53;101139.53;;;17.14;66.74
69772;BME280;57046;45.988;18.664;2022-07-09T02:18:19;101142.75;;;17.04;66.90
69772;BME280;57046;45.988;18.664;2022-07-09T02:20:44;101149.78;;;17.05;67.22
69772;BME280;57046;45.988;18.664;2022-07-09T02:23:09;101146.06;;;16.98;67.29
69772;BME280;57046;45.988;18.664;2022-07-09T02:25:35;101140.16;;;16.96;67.53
69772;BME280;57046;45.988;18.664;2022-07-09T02:28:00;101135.38;;;16.93;67.39
69772;BME280;57046;45.988;18.664;2022-07-09T02:30:25;101120.50;;;16.78;67.51
69772;BME280;57046;45.988;18.664;2022-07-09T02:32:51;101128.00;;;16.81;67.39
69772;BME280;57046;45.988;18.664;2022-07-09T02:35:16;101137.09;;;16.85;67.72
69772;BME280;57046;45.988;18.664;2022-07-09T02:37:41;101138.50;;;16.79;68.19
69772;BME280;57046;45.988;18.664;2022-07-09T02:40:07;101143.03;;;16.75;67.76
69772;BME280;57046;45.988;18.664;2022-07-09T02:42:33;101149.75;;;16.77;67.66
69772;BME280;57046;45.988;18.664;2022-07-09T02:44:58;101145.22;;;16.69;67.88
69772;BME280;57046;45.988;18.664;2022-07-09T02:47:23;101144.88;;;16.71;67.99
69772;BME280;57046;45.988;18.664;2022-07-09T02:49:49;101140.34;;;16.63;68.29
69772;BME280;57046;45.988;18.664;2022-07-09T02:52:14;101140.69;;;16.61;68.37
69772;BME280;57046;45.988;18.664;2022-07-09T02:54:39;101144.09;;;16.58;68.29
69772;BME280;57046;45.988;18.664;2022-07-09T02:57:05;101133.19;;;16.58;68.15
69772;BME280;57046;45.988;18.664;2022-07-09T02:59:30;101136.91;;;16.54;68.39
69772;BME280;57046;45.988;18.664;2022-07-09T03:01:55;101136.47;;;16.52;68.55
69772;BME280;57046;45.988;18.664;2022-07-09T03:04:21;101133.94;;;16.47;68.36
69772;BME280;57046;45.988;18.664;2022-07-09T03:06:46;101137.41;;;16.56;68.24
69772;BME280;57046;45.988;18.664;2022-07-09T03:09:11;101142.50;;;16.57;67.94
69772;BME280;57046;45.988;18.664;2022-07-09T03:11:37;101139.66;;;16.66;67.82
69772;BME280;57046;45.988;18.664;2022-07-09T03:14:02;101137.94;;;16.61;67.78
69772;BME280;57046;45.988;18.664;2022-07-09T03:16:27;101143.31;;;16.70;67.45
69772;BME280;57046;45.988;18.664;2022-07-09T03:18:53;101145.34;;;16.73;67.06
69772;BME280;57046;45.988;18.664;2022-07-09T03:21:18;101141.34;;;16.70;67.34
69772;BME280;57046;45.988;18.664;2022-07-09T03:23:43;101145.78;;;16.75;66.94
69772;BME280;57046;45.988;18.664;2022-07-09T03:26:09;101144.66;;;16.76;66.87
69772;BME280;57046;45.988;18.664;2022-07-09T03:28:34;101146.56;;;16.75;66.96
69772;BME280;57046;45.988;18.664;2022-07-09T03:31:00;101159.78;;;16.73;67.01
69772;BME280;57046;45.988;18.664;2022-07-09T03:33:25;101156.38;;;16.76;67.49
69772;BME280;57046;45.988;18.664;2022-07-09T03:35:53;101154.66;;;16.72;67.63
69772;BME280;57046;45.988;18.664;2022-07-09T03:38:18;101161.03;;;16.76;68.31
69772;BME280;57046;45.988;18.664;2022-07-09T03:40:44;101160.25;;;16.63;68.03
69772;BME280;57046;45.988;18.664;2022-07-09T03:43:09;101152.50;;;16.53;68.46
69772;BME280;57046;45.988;18.664;2022-07-09T03:45:34;101161.16;;;16.55;68.67
69772;BME280;57046;45.988;18.664;2022-07-09T03:47:59;101160.03;;;16.56;68.41
69772;BME280;57046;45.988;18.664;2022-07-09T03:50:25;101152.03;;;16.51;68.64
69772;BME280;57046;45.988;18.664;2022-07-09T03:52:50;101150.91;;;16.52;68.70
69772;BME280;57046;45.988;18.664;2022-07-09T03:55:16;101146.81;;;16.58;68.68
69772;BME280;57046;45.988;18.664;2022-07-09T03:57:42;101161.13;;;16.67;68.22
69772;BME280;57046;45.988;18.664;2022-07-09T04:00:07;101142.59;;;16.73;67.84
69772;BME280;57046;45.988;18.664;2022-07-09T04:02:33;101151.44;;;16.82;67.85
69772;BME280;57046;45.988;18.664;2022-07-09T04:04:58;101151.22;;;16.87;67.40
69772;BME280;57046;45.988;18.664;2022-07-09T04:07:23;101153.28;;;16.90;68.04
69772;BME280;57046;45.988;18.664;2022-07-09T04:09:49;101159.28;;;16.96;67.64
69772;BME280;57046;45.988;18.664;2022-07-09T04:12:14;101158.84;;;16.94;67.75
69772;BME280;57046;45.988;18.664;2022-07-09T04:14:39;101160.41;;;16.95;67.24
69772;BME280;57046;45.988;18.664;2022-07-09T04:17:05;101147.81;;;16.90;67.55
69772;BME280;57046;45.988;18.664;2022-07-09T04:19:30;101156.88;;;16.94;67.78
69772;BME280;57046;45.988;18.664;2022-07-09T04:21:55;101164.63;;;16.92;67.74
69772;BME280;57046;45.988;18.664;2022-07-09T04:24:21;101168.59;;;17.07;67.68
69772;BME280;57046;45.988;18.664;2022-07-09T04:26:46;101158.41;;;17.19;67.12
69772;BME280;57046;45.988;18.664;2022-07-09T04:29:11;101164.16;;;17.30;67.01
69772;BME280;57046;45.988;18.664;2022-07-09T04:31:37;101155.66;;;17.32;66.50
69772;BME280;57046;45.988;18.664;2022-07-09T04:34:02;101169.78;;;17.49;66.61
69772;BME280;57046;45.988;18.664;2022-07-09T04:36:27;101171.03;;;17.52;66.07
69772;BME280;57046;45.988;18.664;2022-07-09T04:38:53;101160.53;;;17.54;65.80
69772;BME280;57046;45.988;18.664;2022-07-09T04:41:18;101164.50;;;17.68;65.61
69772;BME280;57046;45.988;18.664;2022-07-09T04:43:43;101151.53;;;17.53;65.76
69772;BME280;57046;45.988;18.664;2022-07-09T04:46:09;101161.28;;;17.39;66.06
69772;BME280;57046;45.988;18.664;2022-07-09T04:48:34;101167.22;;;17.41;66.16
69772;BME280;57046;45.988;18.664;2022-07-09T04:50:59;101162.06;;;17.39;66.78
69772;BME280;57046;45.988;18.664;2022-07-09T04:53:25;101164.00;;;17.39;66.17
69772;BME280;57046;45.988;18.664;2022-07-09T04:55:50;101155.38;;;17.37;65.86
69772;BME280;57046;45.988;18.664;2022-07-09T04:58:15;101148.50;;;17.43;66.02
69772;BME280;57046;45.988;18.664;2022-07-09T05:00:41;101157.41;;;17.40;65.23
69772;BME280;57046;45.988;18.664;2022-07-09T05:03:06;101146.47;;;17.40;65.41
69772;BME280;57046;45.988;18.664;2022-07-09T05:05:32;101155.03;;;17.38;65.90
69772;BME280;57046;45.988;18.664;2022-07-09T05:07:57;101154.78;;;17.43;65.73
69772;BME280;57046;45.988;18.664;2022-07-09T05:10:22;101150.53;;;17.46;65.79
69772;BME280;57046;45.988;18.664;2022-07-09T05:12:48;101155.16;;;17.42;66.21
69772;BME280;57046;45.988;18.664;2022-07-09T05:15:13;101154.34;;;17.41;65.65
69772;BME280;57046;45.988;18.664;2022-07-09T05:17:39;101149.41;;;17.47;65.48
69772;BME280;57046;45.988;18.664;2022-07-09T05:20:06;101158.22;;;17.68;64.93
69772;BME280;57046;45.988;18.664;2022-07-09T05:22:32;101148.94;;;17.72;65.13
69772;BME280;57046;45.988;18.664;2022-07-09T05:24:58;101146.69;;;17.90;65.10
69772;BME280;57046;45.988;18.664;2022-07-09T05:27:25;101141.16;;;18.02;63.84
69772;BME280;57046;45.988;18.664;2022-07-09T05:29:50;101154.28;;;18.12;63.64
69772;BME280;57046;45.988;18.664;2022-07-09T05:32:16;101149.59;;;18.28;63.16
69772;BME280;57046;45.988;18.664;2022-07-09T05:34:41;101147.19;;;18.43;62.77
69772;BME280;57046;45.988;18.664;2022-07-09T05:37:06;101154.09;;;18.37;63.07
69772;BME280;57046;45.988;18.664;2022-07-09T05:39:32;101159.19;;;18.38;62.85
69772;BME280;57046;45.988;18.664;2022-07-09T05:41:57;101157.72;;;18.56;63.36
69772;BME280;57046;45.988;18.664;2022-07-09T05:44:22;101154.97;;;18.56;62.52
69772;BME280;57046;45.988;18.664;2022-07-09T05:46:48;101161.84;;;18.66;62.43
69772;BME280;57046;45.988;18.664;2022-07-09T05:49:13;101162.56;;;18.63;62.21
69772;BME280;57046;45.988;18.664;2022-07-09T05:51:38;101181.25;;;18.76;61.63
69772;BME280;57046;45.988;18.664;2022-07-09T05:54:04;101171.59;;;18.83;61.64
69772;BME280;57046;45.988;18.664;2022-07-09T05:56:29;101166.50;;;18.81;61.22
69772;BME280;57046;45.988;18.664;2022-07-09T05:58:54;101165.63;;;18.61;61.50
69772;BME280;57046;45.988;18.664;2022-07-09T06:01:20;101171.56;;;18.63;62.23
69772;BME280;57046;45.988;18.664;2022-07-09T06:03:45;101176.75;;;18.68;61.81
69772;BME280;57046;45.988;18.664;2022-07-09T06:06:10;101185.22;;;18.79;62.30
69772;BME280;57046;45.988;18.664;2022-07-09T06:08:36;101180.78;;;18.90;61.45
69772;BME280;57046;45.988;18.664;2022-07-09T06:11:02;101178.28;;;19.20;60.34
69772;BME280;57046;45.988;18.664;2022-07-09T06:13:28;101182.78;;;19.47;61.13
69772;BME280;57046;45.988;18.664;2022-07-09T06:15:53;101181.25;;;19.50;60.40
69772;BME280;57046;45.988;18.664;2022-07-09T06:18:19;101197.28;;;19.48;59.25
69772;BME280;57046;45.988;18.664;2022-07-09T06:20:44;101180.47;;;19.49;59.22
69772;BME280;57046;45.988;18.664;2022-07-09T06:23:10;101182.06;;;19.50;59.21
69772;BME280;57046;45.988;18.664;2022-07-09T06:25:35;101180.25;;;19.58;59.05
69772;BME280;57046;45.988;18.664;2022-07-09T06:28:01;101177.28;;;19.47;59.19
69772;BME280;57046;45.988;18.664;2022-07-09T06:30:26;101175.38;;;19.13;59.38
69772;BME280;57046;45.988;18.664;2022-07-09T06:32:51;101185.84;;;19.26;60.11
69772;BME280;57046;45.988;18.664;2022-07-09T06:35:17;101181.56;;;19.45;59.26
69772;BME280;57046;45.988;18.664;2022-07-09T06:37:42;101185.00;;;19.61;58.84
69772;BME280;57046;45.988;18.664;2022-07-09T06:40:08;101188.06;;;19.56;58.20
69772;BME280;57046;45.988;18.664;2022-07-09T06:42:33;101178.78;;;19.64;58.91
69772;BME280;57046;45.988;18.664;2022-07-09T06:44:59;101180.13;;;19.73;57.49
69772;BME280;57046;45.988;18.664;2022-07-09T06:47:24;101189.16;;;19.74;57.96
69772;BME280;57046;45.988;18.664;2022-07-09T06:49:49;101181.13;;;19.85;57.91
69772;BME280;57046;45.988;18.664;2022-07-09T06:52:15;101181.50;;;19.83;57.61
69772;BME280;57046;45.988;18.664;2022-07-09T06:54:40;101182.66;;;19.82;57.57
69772;BME280;57046;45.988;18.664;2022-07-09T06:57:06;101189.56;;;19.95;57.03
69772;BME280;57046;45.988;18.664;2022-07-09T06:59:31;101188.09;;;20.01;57.12
69772;BME280;57046;45.988;18.664;2022-07-09T07:01:56;101199.13;;;20.05;56.86
69772;BME280;57046;45.988;18.664;2022-07-09T07:04:21;101178.53;;;19.92;56.90
69772;BME280;57046;45.988;18.664;2022-07-09T07:06:47;101191.81;;;20.12;57.35
69772;BME280;57046;45.988;18.664;2022-07-09T07:09:13;101195.63;;;20.27;56.50
69772;BME280;57046;45.988;18.664;2022-07-09T07:11:38;101193.78;;;20.35;56.44
69772;BME280;57046;45.988;18.664;2022-07-09T07:14:04;101184.84;;;20.38;56.03
69772;BME280;57046;45.988;18.664;2022-07-09T07:16:29;101191.31;;;20.52;55.76
69772;BME280;57046;45.988;18.664;2022-07-09T07:18:55;101192.75;;;20.43;56.38
69772;BME280;57046;45.988;18.664;2022-07-09T07:21:20;101196.78;;;20.75;55.43
69772;BME280;57046;45.988;18.664;2022-07-09T07:23:45;101186.47;;;20.95;54.94
69772;BME280;57046;45.988;18.664;2022-07-09T07:26:11;101185.69;;;21.24;54.92
69772;BME280;57046;45.988;18.664;2022-07-09T07:28:36;101191.31;;;21.35;54.46
69772;BME280;57046;45.988;18.664;2022-07-09T07:31:02;101191.03;;;21.43;53.88
69772;BME280;57046;45.988;18.664;2022-07-09T07:33:27;101193.00;;;21.43;53.19
69772;BME280;57046;45.988;18.664;2022-07-09T07:35:52;101193.72;;;21.36;54.62
69772;BME280;57046;45.988;18.664;2022-07-09T07:38:18;101195.44;;;21.18;53.13
69772;BME280;57046;45.988;18.664;2022-07-09T07:40:43;101183.91;;;21.39;52.74
69772;BME280;57046;45.988;18.664;2022-07-09T07:43:12;101188.59;;;21.71;52.95
69772;BME280;57046;45.988;18.664;2022-07-09T07:45:37;101195.69;;;21.72;52.95
69772;BME280;57046;45.988;18.664;2022-07-09T07:48:03;101192.09;;;21.68;52.55
69772;BME280;57046;45.988;18.664;2022-07-09T07:50:28;101190.47;;;21.64;53.15
69772;BME280;57046;45.988;18.664;2022-07-09T07:53:03;101180.44;;;21.82;54.26
69772;BME280;57046;45.988;18.664;2022-07-09T07:58:26;101182.28;;;21.71;52.33
69772;BME280;57046;45.988;18.664;2022-07-09T08:00:51;101179.25;;;22.20;53.09
69772;BME280;57046;45.988;18.664;2022-07-09T08:03:16;101178.00;;;22.10;53.09
69772;BME280;57046;45.988;18.664;2022-07-09T08:05:42;101182.03;;;22.23;51.66
69772;BME280;57046;45.988;18.664;2022-07-09T08:08:07;101187.97;;;22.29;50.70
69772;BME280;57046;45.988;18.664;2022-07-09T08:10:32;101177.34;;;22.27;50.30
69772;BME280;57046;45.988;18.664;2022-07-09T08:12:58;101190.22;;;22.13;49.86
69772;BME280;57046;45.988;18.664;2022-07-09T08:15:23;101179.56;;;22.08;50.38
69772;BME280;57046;45.988;18.664;2022-07-09T08:17:48;101175.94;;;22.48;50.99
69772;BME280;57046;45.988;18.664;2022-07-09T08:20:14;101173.09;;;22.37;49.79
69772;BME280;57046;45.988;18.664;2022-07-09T08:22:39;101168.47;;;22.48;49.71
69772;BME280;57046;45.988;18.664;2022-07-09T08:25:05;101178.91;;;22.72;49.76
69772;BME280;57046;45.988;18.664;2022-07-09T08:27:30;101166.72;;;22.80;49.83
69772;BME280;57046;45.988;18.664;2022-07-09T08:29:56;101178.56;;;22.85;48.59
69772;BME280;57046;45.988;18.664;2022-07-09T08:32:21;101177.03;;;22.94;49.31
69772;BME280;57046;45.988;18.664;2022-07-09T08:34:46;101169.25;;;23.14;48.72
69772;BME280;57046;45.988;18.664;2022-07-09T08:37:12;101165.78;;;23.38;47.28
69772;BME280;57046;45.988;18.664;2022-07-09T08:39:37;101157.47;;;23.24;48.63
69772;BME280;57046;45.988;18.664;2022-07-09T08:42:08;101149.88;;;23.03;48.25
69772;BME280;57046;45.988;18.664;2022-07-09T08:44:38;101151.50;;;23.08;48.80
69772;BME280;57046;45.988;18.664;2022-07-09T08:47:04;101146.81;;;23.15;49.28
69772;BME280;57046;45.988;18.664;2022-07-09T08:49:31;101148.91;;;23.50;49.68
69772;BME280;57046;45.988;18.664;2022-07-09T08:51:57;101140.25;;;23.62;47.72
69772;BME280;57046;45.988;18.664;2022-07-09T08:54:22;101146.16;;;23.54;46.78
69772;BME280;57046;45.988;18.664;2022-07-09T08:56:51;101145.38;;;23.50;47.98
69772;BME280;57046;45.988;18.664;2022-07-09T08:59:16;101135.56;;;23.88;48.04
69772;BME280;57046;45.988;18.664;2022-07-09T09:01:42;101132.81;;;24.37;47.16
69772;BME280;57046;45.988;18.664;2022-07-09T09:04:08;101139.91;;;23.78;46.52
69772;BME280;57046;45.988;18.664;2022-07-09T09:06:38;101156.72;;;23.34;47.04
69772;BME280;57046;45.988;18.664;2022-07-09T09:09:03;101144.41;;;23.10;47.11
69772;BME280;57046;45.988;18.664;2022-07-09T09:11:29;101148.03;;;23.28;47.52
69772;BME280;57046;45.988;18.664;2022-07-09T09:13:54;101136.34;;;23.63;47.17
69772;BME280;57046;45.988;18.664;2022-07-09T09:16:20;101145.03;;;24.04;47.43
69772;BME280;57046;45.988;18.664;2022-07-09T09:18:47;101139.50;;;23.90;46.06
69772;BME280;57046;45.988;18.664;2022-07-09T09:21:15;101133.63;;;24.30;44.80
69772;BME280;57046;45.988;18.664;2022-07-09T09:23:45;101134.78;;;24.44;46.54
69772;BME280;57046;45.988;18.664;2022-07-09T09:28:49;101129.69;;;24.24;44.56
69772;BME280;57046;45.988;18.664;2022-07-09T09:33:51;101128.84;;;24.10;45.40
69772;BME280;57046;45.988;18.664;2022-07-09T09:39:20;101128.47;;;23.87;45.34
69772;BME280;57046;45.988;18.664;2022-07-09T09:44:17;101117.03;;;24.20;44.69
69772;BME280;57046;45.988;18.664;2022-07-09T09:46:45;101120.88;;;24.86;44.95
69772;BME280;57046;45.988;18.664;2022-07-09T09:49:12;101114.63;;;24.50;43.09
69772;BME280;57046;45.988;18.664;2022-07-09T09:54:17;101102.09;;;25.29;42.42
69772;BME280;57046;45.988;18.664;2022-07-09T09:56:43;101104.69;;;25.61;42.55
69772;BME280;57046;45.988;18.664;2022-07-09T09:59:12;101103.81;;;25.05;41.44
69772;BME280;57046;45.988;18.664;2022-07-09T10:01:39;101108.50;;;25.12;41.60
69772;BME280;57046;45.988;18.664;2022-07-09T10:04:05;101100.28;;;24.98;42.59
69772;BME280;57046;45.988;18.664;2022-07-09T10:06:34;101098.66;;;25.07;41.76
69772;BME280;57046;45.988;18.664;2022-07-09T10:09:04;101093.84;;;25.22;40.23
69772;BME280;57046;45.988;18.664;2022-07-09T10:11:43;101086.38;;;25.12;40.37
69772;BME280;57046;45.988;18.664;2022-07-09T10:16:54;101092.31;;;25.14;41.17
69772;BME280;57046;45.988;18.664;2022-07-09T10:19:27;101094.91;;;25.39;39.78
69772;BME280;57046;45.988;18.664;2022-07-09T10:21:56;101081.53;;;25.30;39.73
69772;BME280;57046;45.988;18.664;2022-07-09T10:24:29;101086.38;;;25.12;39.68
69772;BME280;57046;45.988;18.664;2022-07-09T10:27:08;101077.44;;;24.76;41.04
69772;BME280;57046;45.988;18.664;2022-07-09T10:29:35;101079.19;;;25.21;39.79
69772;BME280;57046;45.988;18.664;2022-07-09T10:32:01;101076.88;;;25.16;39.60
69772;BME280;57046;45.988;18.664;2022-07-09T10:34:38;101069.72;;;25.22;39.82
69772;BME280;57046;45.988;18.664;2022-07-09T10:37:08;101082.50;;;24.99;40.46
69772;BME280;57046;45.988;18.664;2022-07-09T10:39:33;101070.50;;;25.23;40.37
69772;BME280;57046;45.988;18.664;2022-07-09T10:42:04;101074.78;;;25.34;39.77
69772;BME280;57046;45.988;18.664;2022-07-09T10:44:40;101059.31;;;25.96;39.25
69772;BME280;57046;45.988;18.664;2022-07-09T10:47:06;101052.53;;;26.41;39.02
69772;BME280;57046;45.988;18.664;2022-07-09T10:49:35;101050.38;;;26.56;40.30
69772;BME280;57046;45.988;18.664;2022-07-09T10:52:01;101049.19;;;26.57;38.59
69772;BME280;57046;45.988;18.664;2022-07-09T10:54:27;101053.28;;;27.09;37.71
69772;BME280;57046;45.988;18.664;2022-07-09T10:56:53;101053.47;;;26.27;37.57
69772;BME280;57046;45.988;18.664;2022-07-09T10:59:19;101066.94;;;25.85;38.16
69772;BME280;57046;45.988;18.664;2022-07-09T11:01:44;101051.59;;;25.73;37.98
69772;BME280;57046;45.988;18.664;2022-07-09T11:04:11;101046.44;;;26.19;37.01
69772;BME280;57046;45.988;18.664;2022-07-09T11:06:46;101045.50;;;25.92;37.26
69772;BME280;57046;45.988;18.664;2022-07-09T11:09:12;101055.28;;;26.00;36.60
69772;BME280;57046;45.988;18.664;2022-07-09T11:11:38;101056.22;;;25.31;38.08
69772;BME280;57046;45.988;18.664;2022-07-09T11:14:05;101047.03;;;25.97;38.55
69772;BME280;57046;45.988;18.664;2022-07-09T11:16:31;101043.81;;;26.43;37.53
69772;BME280;57046;45.988;18.664;2022-07-09T11:18:56;101039.19;;;26.33;38.21
69772;BME280;57046;45.988;18.664;2022-07-09T11:21:25;101036.75;;;25.94;36.53
69772;BME280;57046;45.988;18.664;2022-07-09T11:23:51;101035.19;;;25.93;36.31
69772;BME280;57046;45.988;18.664;2022-07-09T11:26:16;101035.97;;;26.34;37.11
69772;BME280;57046;45.988;18.664;2022-07-09T11:28:44;101015.88;;;26.60;35.25
69772;BME280;57046;45.988;18.664;2022-07-09T11:31:10;101023.88;;;26.17;36.57
69772;BME280;57046;45.988;18.664;2022-07-09T11:33:36;101022.31;;;26.13;36.08
69772;BME280;57046;45.988;18.664;2022-07-09T11:36:02;101015.63;;;26.48;38.17
69772;BME280;57046;45.988;18.664;2022-07-09T11:38:31;101013.78;;;26.68;35.73
69772;BME280;57046;45.988;18.664;2022-07-09T11:41:01;101006.25;;;26.68;35.87
69772;BME280;57046;45.988;18.664;2022-07-09T11:43:26;101011.50;;;26.29;35.08
69772;BME280;57046;45.988;18.664;2022-07-09T11:45:53;101001.00;;;25.65;35.37
69772;BME280;57046;45.988;18.664;2022-07-09T11:48:19;101005.78;;;26.06;37.26
69772;BME280;57046;45.988;18.664;2022-07-09T11:50:46;101008.31;;;26.61;32.55
69772;BME280;57046;45.988;18.664;2022-07-09T11:53:29;100993.56;;;26.37;33.71
69772;BME280;57046;45.988;18.664;2022-07-09T11:56:07;100998.13;;;25.76;32.99
69772;BME280;57046;45.988;18.664;2022-07-09T11:58:33;100985.09;;;26.17;34.59
69772;BME280;57046;45.988;18.664;2022-07-09T12:00:59;100980.34;;;26.78;32.86
69772;BME280;57046;45.988;18.664;2022-07-09T12:03:26;100987.97;;;26.71;32.93
69772;BME280;57046;45.988;18.664;2022-07-09T12:05:52;100981.28;;;26.38;31.19
69772;BME280;57046;45.988;18.664;2022-07-09T12:08:29;100981.50;;;26.81;33.13
69772;BME280;57046;45.988;18.664;2022-07-09T12:10:57;100967.50;;;26.92;31.23
69772;BME280;57046;45.988;18.664;2022-07-09T12:13:23;100967.25;;;26.83;32.49
69772;BME280;57046;45.988;18.664;2022-07-09T12:15:48;100976.00;;;27.08;30.71
69772;BME280;57046;45.988;18.664;2022-07-09T12:18:13;100963.47;;;27.23;33.58
69772;BME280;57046;45.988;18.664;2022-07-09T12:20:39;100961.75;;;27.06;31.66
69772;BME280;57046;45.988;18.664;2022-07-09T12:23:05;100964.53;;;26.75;32.19
69772;BME280;57046;45.988;18.664;2022-07-09T12:25:31;100946.69;;;27.30;32.89
69772;BME280;57046;45.988;18.664;2022-07-09T12:27:56;100941.69;;;27.68;33.09
69772;BME280;57046;45.988;18.664;2022-07-09T12:30:22;100943.06;;;27.79;30.26
69772;BME280;57046;45.988;18.664;2022-07-09T12:32:48;100945.56;;;28.17;29.98
69772;BME280;57046;45.988;18.664;2022-07-09T12:35:14;100942.47;;;28.11;32.32
69772;BME280;57046;45.988;18.664;2022-07-09T12:37:40;100946.16;;;28.44;30.78
69772;BME280;57046;45.988;18.664;2022-07-09T12:40:07;100937.66;;;28.71;29.26
69772;BME280;57046;45.988;18.664;2022-07-09T12:42:33;100930.91;;;28.88;29.70
69772;BME280;57046;45.988;18.664;2022-07-09T12:45:05;100939.78;;;28.04;30.38
69772;BME280;57046;45.988;18.664;2022-07-09T12:47:34;100928.81;;;27.08;31.88
69772;BME280;57046;45.988;18.664;2022-07-09T12:50:00;100935.56;;;26.80;31.66
69772;BME280;57046;45.988;18.664;2022-07-09T12:52:26;100920.97;;;27.03;32.78
69772;BME280;57046;45.988;18.664;2022-07-09T12:54:54;100931.91;;;27.37;31.85